Terminal Aerodrome Forecast
Issued by NWS

Home | Current Version | Previous Version | Text Only | Print | Product List | Glossary On
Versions: 1 2 3 4 5 6 7 8 9 10 11 12 13 14 15 16 17 18 19 20 21
000
FTUS41 KGYX 240525
TAFAUG
TAF
KAUG 240525Z 2406/2506 20005KT P6SM SCT120
     FM241300 27014G24KT P6SM SCT070 SCT250
     FM250000 23006KT P6SM SKC=

USA.gov is the U.S. government's official web portal to all federal, state and local government web resources and services.